Fair Seas — V7PD2 — position and weather

sailwx.info

Track history (hours):
 
Tides and Currents Weather Stations Pressure Air Temp Water Temp Dewpoint Dewpoint Depression Visibility Wind Speed Wind Dir Waves Ship Positions

Fair Seas

Last reported at 2015-Jan-28 21:20 UTC. Time now 2015-Jan-28 22:16 UTC.
Position N 01°17' E 103°55'.

Length 250 m; draft 8 m.

Type: Ship (hazmat cat D). MMSI: 538003211.

Date/timePositionNaut miles runAvg speedWind from/ knotsBaromVisibWave heightAir tempDewpointWater temp
2015-Jan-28 21:20N 01°17' E 103°55'0 0.0
2015-Jan-28 20:14N 01°17' E 103°55'0 0.0
2015-Jan-28 19:29N 01°17' E 103°55'0 0.0
2015-Jan-28 18:32N 01°17' E 103°55'0 0.0
2015-Jan-28 17:26N 01°17' E 103°55'0 0.0
2015-Jan-28 16:26N 01°17' E 103°55'0 0.0
2015-Jan-28 15:14N 01°17' E 103°55'0 0.0
2015-Jan-28 14:32N 01°17' E 103°55'0 0.0
2015-Jan-28 13:20N 01°17' E 103°55'0 0.0
2015-Jan-28 12:14N 01°17' E 103°55'1 2.1
2015-Jan-28 11:33N 01°16' E 103°56'9 9.3
2015-Jan-28 10:33N 01°16' E 104°05'9 9.0
2015-Jan-28 09:32N 01°17' E 104°14'  
2015-Jan-23 07:10N 22°32' E 119°44'812.7
2015-Jan-23 06:34N 22°39' E 119°48'6910.8
2015-Jan-23 00:11N 23°45' E 120°07'3 0.1
2015-Jan-21 16:14N 23°44' E 120°05'7 8.3
2015-Jan-21 15:27N 23°41' E 119°59'1111.3
2015-Jan-21 14:31N 23°30' E 119°55'3913.3
2015-Jan-21 11:33N 22°51' E 119°57'1211.9
2015-Jan-21 10:33N 22°40' E 119°59'1010.1
2015-Jan-21 09:33N 22°34' E 120°08'1010.3
2015-Jan-21 08:33N 22°33' E 120°19'1 1.0
2015-Jan-21 07:31N 22°32' E 120°20'0 0.0
2015-Jan-21 06:31N 22°32' E 120°20'0 0.0
2015-Jan-21 05:31N 22°32' E 120°20'0 0.0
2015-Jan-21 04:31N 22°32' E 120°20'0 0.0
2015-Jan-21 03:31N 22°32' E 120°20'0 0.0
2015-Jan-21 02:25N 22°32' E 120°20'0 0.0
2015-Jan-21 01:31N 22°32' E 120°20'0 0.0
2015-Jan-21 00:25N 22°32' E 120°20'0 0.0
2015-Jan-20 23:31N 22°32' E 120°20'0 0.0
2015-Jan-20 22:31N 22°32' E 120°20'0 0.0
2015-Jan-20 21:31N 22°32' E 120°20'0 0.0
2015-Jan-20 20:31N 22°32' E 120°20'0 0.0
2015-Jan-20 19:31N 22°32' E 120°20'0 0.0
2015-Jan-20 18:13N 22°32' E 120°20'0 0.0
2015-Jan-20 17:31N 22°32' E 120°20'0 0.0
2015-Jan-20 16:31N 22°32' E 120°20'0 0.0
2015-Jan-20 15:31N 22°32' E 120°20'0 0.0
2015-Jan-20 14:31N 22°32' E 120°20'0 0.0
2015-Jan-20 13:31N 22°32' E 120°20'0 0.0
2015-Jan-20 12:25N 22°32' E 120°20'0 0.0
2015-Jan-20 11:31N 22°32' E 120°20'0 0.0
2015-Jan-20 10:31N 22°32' E 120°20'0 0.0
2015-Jan-20 09:31N 22°32' E 120°20'0 0.0
2015-Jan-20 08:31N 22°32' E 120°20'1 1.0
2015-Jan-20 07:33N 22°33' E 120°19'5 5.1
2015-Jan-20 06:34N 22°31' E 120°14'1 1.4
2015-Jan-20 05:31N 22°30' E 120°15'0 0.0
2015-Jan-20 04:19N 22°30' E 120°15'0 0.1
2015-Jan-20 03:31N 22°30' E 120°15'0 0.0
2015-Jan-20 02:19N 22°30' E 120°15'0 0.1
2015-Jan-20 01:19N 22°30' E 120°15'0 0.1
2015-Jan-20 00:31N 22°30' E 120°15'0 0.0
2015-Jan-19 23:31N 22°30' E 120°15'0 0.1
2015-Jan-19 22:31N 22°30' E 120°15'0 0.0
2015-Jan-19 21:30N 22°30' E 120°15'0 0.0
2015-Jan-19 20:31N 22°30' E 120°15'0 0.1
2015-Jan-19 19:31N 22°30' E 120°15'0 0.0
2015-Jan-19 18:31N 22°30' E 120°15'0 0.1
2015-Jan-19 17:30N 22°30' E 120°15'0 0.1
2015-Jan-19 16:19N 22°30' E 120°15'0 0.1
2015-Jan-19 15:31N 22°30' E 120°15'0 0.0
2015-Jan-19 14:31N 22°30' E 120°15'0 0.1
2015-Jan-19 13:31N 22°30' E 120°15'0 0.1
2015-Jan-19 12:31N 22°30' E 120°15'0 0.0
2015-Jan-19 11:31N 22°30' E 120°15'0 0.0
2015-Jan-19 10:31N 22°30' E 120°15'0 0.0
2015-Jan-19 09:31N 22°30' E 120°15'0 0.0
2015-Jan-19 08:31N 22°30' E 120°15'0 0.0
2015-Jan-19 07:31N 22°30' E 120°15'0 0.0
2015-Jan-19 06:25N 22°30' E 120°15'0 0.1
2015-Jan-19 05:31N 22°30' E 120°15'0 0.1
2015-Jan-19 04:25N 22°30' E 120°15'0 0.1
2015-Jan-19 03:31N 22°30' E 120°15'0 0.0
2015-Jan-19 02:30N 22°30' E 120°15'0 0.1
2015-Jan-19 01:31N 22°30' E 120°15'0 0.1
2015-Jan-19 00:31N 22°30' E 120°15'0 0.1
2015-Jan-18 23:30N 22°30' E 120°15'0 0.1
2015-Jan-18 22:31N 22°30' E 120°15'0 0.0
2015-Jan-18 21:31N 22°30' E 120°15'  
Track history (hours):
 
Tides and Currents Weather Stations Pressure Air Temp Water Temp Dewpoint Dewpoint Depression Visibility Wind Speed Wind Dir Waves Ship Positions

Fair Seas

Last reported at 2015-Jan-28 21:20 UTC. Time now 2015-Jan-28 22:16 UTC.
Position N 01°17' E 103°55'.

Length 250 m; draft 8 m.

Type: Ship (hazmat cat D). MMSI: 538003211.

Date/timePositionNaut miles runAvg speedWind from/ knotsBaromVisibWave heightAir tempDewpointWater temp
2015-Jan-28 21:20N 01°17' E 103°55'0 0.0
2015-Jan-28 20:14N 01°17' E 103°55'0 0.0
2015-Jan-28 19:29N 01°17' E 103°55'0 0.0
2015-Jan-28 18:32N 01°17' E 103°55'0 0.0
2015-Jan-28 17:26N 01°17' E 103°55'0 0.0
2015-Jan-28 16:26N 01°17' E 103°55'0 0.0
2015-Jan-28 15:14N 01°17' E 103°55'0 0.0
2015-Jan-28 14:32N 01°17' E 103°55'0 0.0
2015-Jan-28 13:20N 01°17' E 103°55'0 0.0
2015-Jan-28 12:14N 01°17' E 103°55'1 2.1
2015-Jan-28 11:33N 01°16' E 103°56'9 9.3
2015-Jan-28 10:33N 01°16' E 104°05'9 9.0
2015-Jan-28 09:32N 01°17' E 104°14'  
2015-Jan-23 07:10N 22°32' E 119°44'812.7
2015-Jan-23 06:34N 22°39' E 119°48'6910.8
2015-Jan-23 00:11N 23°45' E 120°07'3 0.1
2015-Jan-21 16:14N 23°44' E 120°05'7 8.3
2015-Jan-21 15:27N 23°41' E 119°59'1111.3
2015-Jan-21 14:31N 23°30' E 119°55'3913.3
2015-Jan-21 11:33N 22°51' E 119°57'1211.9
2015-Jan-21 10:33N 22°40' E 119°59'1010.1
2015-Jan-21 09:33N 22°34' E 120°08'1010.3
2015-Jan-21 08:33N 22°33' E 120°19'1 1.0
2015-Jan-21 07:31N 22°32' E 120°20'0 0.0
2015-Jan-21 06:31N 22°32' E 120°20'0 0.0
2015-Jan-21 05:31N 22°32' E 120°20'0 0.0
2015-Jan-21 04:31N 22°32' E 120°20'0 0.0
2015-Jan-21 03:31N 22°32' E 120°20'0 0.0
2015-Jan-21 02:25N 22°32' E 120°20'0 0.0
2015-Jan-21 01:31N 22°32' E 120°20'0 0.0
2015-Jan-21 00:25N 22°32' E 120°20'0 0.0
2015-Jan-20 23:31N 22°32' E 120°20'0 0.0
2015-Jan-20 22:31N 22°32' E 120°20'0 0.0
2015-Jan-20 21:31N 22°32' E 120°20'0 0.0
2015-Jan-20 20:31N 22°32' E 120°20'0 0.0
2015-Jan-20 19:31N 22°32' E 120°20'0 0.0
2015-Jan-20 18:13N 22°32' E 120°20'0 0.0
2015-Jan-20 17:31N 22°32' E 120°20'0 0.0
2015-Jan-20 16:31N 22°32' E 120°20'0 0.0
2015-Jan-20 15:31N 22°32' E 120°20'0 0.0
2015-Jan-20 14:31N 22°32' E 120°20'0 0.0
2015-Jan-20 13:31N 22°32' E 120°20'0 0.0
2015-Jan-20 12:25N 22°32' E 120°20'0 0.0
2015-Jan-20 11:31N 22°32' E 120°20'0 0.0
2015-Jan-20 10:31N 22°32' E 120°20'0 0.0
2015-Jan-20 09:31N 22°32' E 120°20'0 0.0
2015-Jan-20 08:31N 22°32' E 120°20'1 1.0
2015-Jan-20 07:33N 22°33' E 120°19'5 5.1
2015-Jan-20 06:34N 22°31' E 120°14'1 1.4
2015-Jan-20 05:31N 22°30' E 120°15'0 0.0
2015-Jan-20 04:19N 22°30' E 120°15'0 0.1
2015-Jan-20 03:31N 22°30' E 120°15'0 0.0
2015-Jan-20 02:19N 22°30' E 120°15'0 0.1
2015-Jan-20 01:19N 22°30' E 120°15'0 0.1
2015-Jan-20 00:31N 22°30' E 120°15'0 0.0
2015-Jan-19 23:31N 22°30' E 120°15'0 0.1
2015-Jan-19 22:31N 22°30' E 120°15'0 0.0
2015-Jan-19 21:30N 22°30' E 120°15'0 0.0
2015-Jan-19 20:31N 22°30' E 120°15'0 0.1
2015-Jan-19 19:31N 22°30' E 120°15'0 0.0
2015-Jan-19 18:31N 22°30' E 120°15'0 0.1
2015-Jan-19 17:30N 22°30' E 120°15'0 0.1
2015-Jan-19 16:19N 22°30' E 120°15'0 0.1
2015-Jan-19 15:31N 22°30' E 120°15'0 0.0
2015-Jan-19 14:31N 22°30' E 120°15'0 0.1
2015-Jan-19 13:31N 22°30' E 120°15'0 0.1
2015-Jan-19 12:31N 22°30' E 120°15'0 0.0
2015-Jan-19 11:31N 22°30' E 120°15'0 0.0
2015-Jan-19 10:31N 22°30' E 120°15'0 0.0
2015-Jan-19 09:31N 22°30' E 120°15'0 0.0
2015-Jan-19 08:31N 22°30' E 120°15'0 0.0
2015-Jan-19 07:31N 22°30' E 120°15'0 0.0
2015-Jan-19 06:25N 22°30' E 120°15'0 0.1
2015-Jan-19 05:31N 22°30' E 120°15'0 0.1
2015-Jan-19 04:25N 22°30' E 120°15'0 0.1
2015-Jan-19 03:31N 22°30' E 120°15'0 0.0
2015-Jan-19 02:30N 22°30' E 120°15'0 0.1
2015-Jan-19 01:31N 22°30' E 120°15'0 0.1
2015-Jan-19 00:31N 22°30' E 120°15'0 0.1
2015-Jan-18 23:30N 22°30' E 120°15'0 0.1
2015-Jan-18 22:31N 22°30' E 120°15'0 0.0
2015-Jan-18 21:31N 22°30' E 120°15'  

Dump ship's entire track history